Time;durP1;ratioP1;P1;durP2;ratioP2;P2;SDS_P1;SDS_P2;PMS_P1;PMS_P2;Temp;Humidity;BMP_temperature;BMP_pressure;BME280_temperature;BME280_humidity;BME280_pressure;Samples;Min_cycle;Max_cycle;Signal;HPM_P1;HPM_P2
2023/07/20 00:03:16;;;;;;;8.25;4.40;;;;;;;17.63;61.16;100298.88;20668475;28;20221;-78
2023/07/20 00:13:20;;;;;;;9.18;4.60;;;;;;;17.82;60.29;100297.97;20691742;28;20197;-78
2023/07/20 00:23:23;;;;;;;5.97;5.35;;;;;;;17.82;60.65;100297.97;20715763;28;20220;-78
2023/07/20 00:33:25;;;;;;;7.25;4.68;;;;;;;17.48;60.51;100294.09;20729697;28;20248;-79
2023/07/20 00:43:28;;;;;;;8.82;5.70;;;;;;;18.58;58.34;100290.28;20708921;28;20229;-78
2023/07/20 00:53:30;;;;;;;8.93;6.10;;;;;;;17.93;59.42;100282.75;20700688;28;20310;-78
2023/07/20 01:03:35;;;;;;;8.13;4.85;;;;;;;18.18;58.40;100288.06;20687275;28;20290;-79
2023/07/20 01:13:38;;;;;;;10.07;5.60;;;;;;;17.48;61.42;100288.41;20699963;28;20590;-78
2023/07/20 01:24:09;;;;;;;7.47;4.90;;;;;;;17.72;60.99;100279.50;20693937;28;20256;-78
2023/07/20 01:34:15;;;;;;;9.40;5.07;;;;;;;17.63;60.92;100280.97;20642940;28;20194;-78
2023/07/20 01:44:18;;;;;;;8.88;5.32;;;;;;;17.84;58.97;100276.47;20672650;28;20251;-78
2023/07/20 01:54:21;;;;;;;10.15;5.35;;;;;;;17.53;60.64;100271.88;20688251;28;20225;-78
2023/07/20 02:04:23;;;;;;;8.00;5.95;;;;;;;17.47;60.25;100269.69;20690478;28;20284;-79
2023/07/20 02:14:26;;;;;;;8.65;5.82;;;;;;;17.02;61.61;100254.13;20695910;28;20240;-78
2023/07/20 02:24:29;;;;;;;9.80;6.15;;;;;;;17.28;59.99;100244.13;20708556;28;20271;-79
2023/07/20 02:34:31;;;;;;;9.55;6.35;;;;;;;17.60;59.43;100242.69;20708495;28;20259;-79
2023/07/20 02:44:34;;;;;;;11.43;6.82;;;;;;;17.00;61.74;100267.09;20705934;28;20259;-79
2023/07/20 02:54:36;;;;;;;10.23;7.18;;;;;;;17.07;63.71;100287.97;20698024;28;20283;-77
2023/07/20 03:04:39;;;;;;;14.63;8.55;;;;;;;17.46;63.57;100305.03;20678335;28;20229;-76
2023/07/20 03:14:45;;;;;;;19.70;9.13;;;;;;;17.14;65.90;100290.97;20707945;28;20193;-76
2023/07/20 03:24:48;;;;;;;10.50;7.93;;;;;;;16.72;67.22;100292.88;20712097;28;20275;-77
2023/07/20 03:34:50;;;;;;;11.77;8.30;;;;;;;16.91;67.16;100292.88;20697422;28;20594;-78
2023/07/20 03:44:53;;;;;;;13.57;8.25;;;;;;;16.60;68.97;100301.53;20691953;28;20213;-77
2023/07/20 03:54:57;;;;;;;10.68;9.48;;;;;;;17.03;67.14;100304.13;20685759;28;20225;-77
2023/07/20 04:04:59;;;;;;;11.05;9.50;;;;;;;17.51;65.52;100301.88;20720229;28;20501;-77
2023/07/20 04:15:03;;;;;;;15.00;10.43;;;;;;;17.29;66.87;100309.16;20719768;28;20193;-77
2023/07/20 04:25:07;;;;;;;17.38;13.73;;;;;;;17.39;66.44;100310.59;20698642;28;20642;-77
2023/07/20 04:35:10;;;;;;;23.92;20.58;;;;;;;17.43;66.74;100320.00;20682982;28;20255;-78
2023/07/20 04:45:15;;;;;;;19.87;16.17;;;;;;;17.49;64.93;100335.56;20662051;28;20224;-78
2023/07/20 04:55:18;;;;;;;20.50;15.32;;;;;;;16.91;65.78;100340.38;20701122;28;20638;-79
2023/07/20 05:05:21;;;;;;;17.13;13.82;;;;;;;17.03;66.04;100348.78;20733534;28;20514;-80
2023/07/20 05:15:27;;;;;;;15.77;11.77;;;;;;;17.80;64.77;100338.19;20705454;28;20255;-80
2023/07/20 05:25:33;;;;;;;12.65;11.30;;;;;;;17.42;64.58;100350.47;20746924;28;20217;-81
2023/07/20 05:35:36;;;;;;;9.20;8.27;;;;;;;16.87;64.11;100357.38;20719104;28;20201;-80
2023/07/20 05:45:44;;;;;;;8.07;7.00;;;;;;;17.45;62.31;100365.97;20717337;28;20283;-79
2023/07/20 05:55:53;;;;;;;8.93;6.63;;;;;;;17.43;61.93;100379.75;20707187;28;20255;-78
2023/07/20 06:06:01;;;;;;;8.57;6.82;;;;;;;17.24;63.49;100393.97;20715159;28;20220;-78
2023/07/20 06:16:04;;;;;;;7.20;6.40;;;;;;;17.64;62.07;100394.44;20725912;28;20259;-80
2023/07/20 06:26:07;;;;;;;7.13;6.20;;;;;;;17.70;62.53;100401.44;20743247;28;20189;-80
2023/07/20 06:36:10;;;;;;;5.35;4.82;;;;;;;17.14;63.06;100418.09;20719536;28;20276;-80
2023/07/20 06:46:13;;;;;;;3.95;3.53;;;;;;;17.55;60.83;100406.00;20691808;28;20561;-79
2023/07/20 06:56:15;;;;;;;2.65;2.45;;;;;;;17.71;59.77;100400.25;20707851;28;20519;-80
2023/07/20 07:06:18;;;;;;;1.40;1.30;;;;;;;17.64;56.65;100399.28;20713609;28;20201;-80
2023/07/20 07:16:20;;;;;;;2.00;1.77;;;;;;;17.45;57.54;100422.88;20740670;28;20202;-80
2023/07/20 07:26:24;;;;;;;3.28;2.97;;;;;;;17.80;57.37;100417.91;20729426;28;20197;-81
2023/07/20 07:36:26;;;;;;;3.97;2.15;;;;;;;17.58;56.87;100430.88;20731863;28;20217;-80
2023/07/20 07:46:29;;;;;;;1.95;1.85;;;;;;;18.24;55.31;100429.78;20695135;28;20193;-80
2023/07/20 07:56:31;;;;;;;1.67;1.58;;;;;;;18.27;56.31;100443.28;20710828;28;20283;-80
2023/07/20 08:06:34;;;;;;;1.33;0.90;;;;;;;18.28;54.04;100438.41;20693018;28;20201;-80
2023/07/20 08:16:36;;;;;;;0.75;0.63;;;;;;;18.41;52.24;100439.84;20717146;28;20213;-81
2023/07/20 08:26:39;;;;;;;1.08;0.80;;;;;;;19.04;49.05;100450.69;20729898;28;20533;-81
2023/07/20 08:36:42;;;;;;;1.02;0.30;;;;;;;18.46;50.24;100468.00;20735291;28;20287;-81
2023/07/20 08:46:45;;;;;;;0.50;0.50;;;;;;;19.03;49.90;100469.00;20720101;28;20193;-81
2023/07/20 08:56:48;;;;;;;0.77;0.20;;;;;;;18.96;47.32;100475.44;20702224;28;20229;-79
2023/07/20 09:06:51;;;;;;;0.82;0.30;;;;;;;18.34;47.95;100462.50;20718262;28;20193;-80
2023/07/20 09:16:55;;;;;;;0.63;0.40;;;;;;;19.17;46.49;100466.38;20687409;28;20279;-80
2023/07/20 09:27:01;;;;;;;0.55;0.20;;;;;;;19.81;45.07;100470.16;20680645;28;20194;-78
2023/07/20 09:37:04;;;;;;;0.20;0.20;;;;;;;19.90;41.09;100462.09;20691902;28;20209;-80
2023/07/20 09:47:07;;;;;;;1.58;0.20;;;;;;;20.06;42.06;100453.34;20698087;28;20559;-80
2023/07/20 09:57:13;;;;;;;0.90;0.20;;;;;;;19.22;42.27;100446.09;20599177;28;20234;-81
2023/07/20 10:07:17;;;;;;;0.55;0.20;;;;;;;20.53;39.61;100443.19;20598581;28;20194;-81
2023/07/20 10:17:21;;;;;;;0.82;0.20;;;;;;;19.94;41.74;100462.19;20619086;28;20209;-80
2023/07/20 10:27:24;;;;;;;0.40;0.25;;;;;;;20.28;39.44;100445.81;20612639;28;20665;-81
2023/07/20 10:37:53;;;;;;;0.20;0.10;;;;;;;21.26;35.51;100429.94;20657690;28;20217;-80
2023/07/20 10:47:55;;;;;;;0.30;0.30;;;;;;;21.34;36.82;100425.88;20639437;28;20225;-80
2023/07/20 10:58:09;;;;;;;0.47;0.45;;;;;;;21.16;37.34;100428.63;20641464;28;20217;-80
2023/07/20 11:08:12;;;;;;;0.38;0.38;;;;;;;20.45;36.18;100425.16;20673907;28;20606;-80
2023/07/20 11:18:15;;;;;;;0.88;0.50;;;;;;;20.66;37.52;100424.53;20680192;28;20213;-80
2023/07/20 11:28:17;;;;;;;0.38;0.38;;;;;;;21.95;33.24;100407.72;20703084;28;20198;-78
2023/07/20 11:38:21;;;;;;;1.33;0.47;;;;;;;20.99;36.08;100398.66;20667592;28;20688;-79
2023/07/20 11:48:23;;;;;;;1.65;0.80;;;;;;;20.24;35.60;100399.25;20668618;28;20303;-79
2023/07/20 11:58:27;;;;;;;0.75;0.57;;;;;;;22.48;30.50;100386.94;20688876;28;20221;-79
2023/07/20 12:08:30;;;;;;;0.60;0.60;;;;;;;22.94;31.66;100383.25;20648913;28;20193;-80
2023/07/20 12:18:36;;;;;;;0.60;0.60;;;;;;;21.80;32.35;100380.28;20699333;28;20217;-80
2023/07/20 12:28:42;;;;;;;1.08;0.30;;;;;;;21.82;33.62;100371.28;20701981;28;20197;-80
2023/07/20 12:38:45;;;;;;;1.80;0.22;;;;;;;23.20;30.51;100377.06;20704923;28;20574;-80
2023/07/20 12:48:47;;;;;;;0.20;0.20;;;;;;;21.53;31.38;100364.63;20690672;28;20541;-79
2023/07/20 12:58:51;;;;;;;1.50;0.30;;;;;;;22.53;30.81;100348.44;20688966;28;20475;-79
2023/07/20 13:08:56;;;;;;;0.90;0.10;;;;;;;22.98;29.61;100355.41;20690161;28;20228;-80
2023/07/20 13:18:58;;;;;;;0.73;0.32;;;;;;;22.89;30.38;100346.34;20692677;28;20209;-78
2023/07/20 13:29:01;;;;;;;0.28;0.28;;;;;;;22.83;29.25;100340.22;20690948;28;20201;-79
2023/07/20 13:39:04;;;;;;;0.50;0.20;;;;;;;22.36;29.87;100338.59;20672566;28;20291;-80
2023/07/20 13:49:07;;;;;;;0.22;0.20;;;;;;;22.93;30.43;100335.69;20652505;28;20267;-79
2023/07/20 13:59:15;;;;;;;1.77;0.40;;;;;;;23.07;29.64;100327.06;20726672;28;20267;-79
2023/07/20 14:09:18;;;;;;;0.20;0.20;;;;;;;22.41;29.83;100318.16;20738561;28;20193;-78
2023/07/20 14:19:20;;;;;;;0.30;0.22;;;;;;;21.92;31.67;100319.75;20712282;28;20209;-82
2023/07/20 14:29:24;;;;;;;0.70;0.47;;;;;;;22.74;30.37;100309.06;20724802;28;20452;-82
2023/07/20 14:39:30;;;;;;;0.52;0.38;;;;;;;22.81;29.38;100296.78;20733740;28;20240;-83
2023/07/20 14:49:33;;;;;;;0.30;0.30;;;;;;;23.50;29.31;100285.44;20737515;28;20283;-83
2023/07/20 14:59:37;;;;;;;0.22;0.22;;;;;;;22.79;30.19;100282.84;20705619;28;20205;-79
2023/07/20 15:09:40;;;;;;;0.75;0.30;;;;;;;22.77;28.73;100279.56;20717984;28;20201;-83
2023/07/20 15:19:49;;;;;;;1.67;0.90;;;;;;;23.41;28.69;100267.84;20720671;28;20261;-82
2023/07/20 15:29:53;;;;;;;0.95;0.30;;;;;;;22.54;29.22;100264.88;20733358;28;20235;-83
2023/07/20 15:39:56;;;;;;;0.47;0.30;;;;;;;23.79;28.18;100253.66;20736737;28;20280;-80
2023/07/20 15:50:00;;;;;;;0.85;0.50;;;;;;;22.35;28.90;100260.34;20708911;28;20229;-81
2023/07/20 16:00:04;;;;;;;0.47;0.47;;;;;;;21.78;29.44;100262.41;20702138;28;20213;-84
2023/07/20 16:10:13;;;;;;;0.45;0.35;;;;;;;21.77;30.92;100249.28;20728522;28;20251;-85
2023/07/20 16:20:17;;;;;;;2.75;0.38;;;;;;;23.07;28.41;100240.97;20717917;28;20263;-82
2023/07/20 16:30:20;;;;;;;0.77;0.40;;;;;;;22.68;28.19;100230.41;20699898;28;20220;-84
2023/07/20 16:40:24;;;;;;;0.57;0.40;;;;;;;22.93;28.81;100212.28;20687790;28;20563;-81
2023/07/20 16:50:29;;;;;;;0.40;0.40;;;;;;;22.97;29.29;100195.91;20690838;28;20625;-84
2023/07/20 17:00:32;;;;;;;0.98;0.50;;;;;;;22.75;29.37;100195.97;20667796;28;20279;-80
2023/07/20 17:10:36;;;;;;;0.85;0.40;;;;;;;22.05;30.58;100194.91;20679420;28;20609;-84
2023/07/20 17:20:39;;;;;;;0.55;0.35;;;;;;;21.89;29.94;100194.50;20670996;28;20247;-81
2023/07/20 17:30:45;;;;;;;0.75;0.40;;;;;;;22.40;29.99;100193.22;20666431;28;20228;-79
2023/07/20 17:40:47;;;;;;;0.95;0.28;;;;;;;22.80;30.88;100183.25;20675167;28;20221;-82
2023/07/20 17:50:51;;;;;;;2.53;0.40;;;;;;;22.13;30.99;100173.59;20686596;28;20251;-82
2023/07/20 18:01:00;;;;;;;0.30;0.20;;;;;;;22.69;30.44;100168.13;20697897;28;20287;-82
2023/07/20 18:11:07;;;;;;;1.48;0.40;;;;;;;22.71;30.62;100169.34;20679427;28;20201;-80
2023/07/20 18:21:09;;;;;;;0.38;0.30;;;;;;;22.70;30.37;100170.59;20687005;28;20275;-81
2023/07/20 18:31:15;;;;;;;1.35;0.40;;;;;;;22.22;31.25;100160.88;20670084;28;20197;-80
2023/07/20 18:41:18;;;;;;;0.50;0.40;;;;;;;22.28;31.42;100165.78;20699124;28;20232;-80
2023/07/20 18:51:25;;;;;;;0.50;0.30;;;;;;;21.91;31.80;100168.31;20681128;28;20248;-79
2023/07/20 19:01:29;;;;;;;0.68;0.28;;;;;;;21.71;32.17;100171.53;20682856;28;20248;-81
2023/07/20 19:11:31;;;;;;;0.47;0.32;;;;;;;21.40;33.91;100167.44;20689138;28;20201;-78
2023/07/20 19:21:37;;;;;;;1.48;0.50;;;;;;;21.21;34.21;100167.00;20693365;28;20292;-79
2023/07/20 19:31:40;;;;;;;3.38;0.30;;;;;;;21.13;35.91;100171.88;20690164;28;20351;-79
2023/07/20 19:41:43;;;;;;;3.78;0.50;;;;;;;20.90;36.77;100182.84;20671519;28;20213;-80
2023/07/20 19:51:45;;;;;;;0.68;0.50;;;;;;;21.40;35.87;100176.03;20675012;28;20292;-79
2023/07/20 20:01:48;;;;;;;2.83;0.60;;;;;;;21.35;36.05;100196.47;20678169;28;20221;-82
2023/07/20 20:11:51;;;;;;;1.08;0.40;;;;;;;21.16;36.32;100191.09;20706947;28;20185;-79
2023/07/20 20:22:01;;;;;;;0.90;0.55;;;;;;;20.85;37.80;100168.91;20686259;28;20221;-79
2023/07/20 20:32:04;;;;;;;0.98;0.70;;;;;;;21.05;37.50;100173.06;20690413;28;20602;-79
2023/07/20 20:42:07;;;;;;;1.35;0.70;;;;;;;20.72;36.45;100172.16;20668294;28;20255;-80
2023/07/20 20:52:14;;;;;;;0.73;0.57;;;;;;;20.49;37.57;100173.63;20733252;28;20248;-79
2023/07/20 21:02:19;;;;;;;2.35;0.60;;;;;;;20.87;37.86;100167.28;20730161;28;20220;-80
2023/07/20 21:12:22;;;;;;;1.05;0.55;;;;;;;20.71;37.13;100159.06;20702932;28;20209;-78
2023/07/20 21:22:25;;;;;;;3.70;0.70;;;;;;;20.65;38.00;100165.59;20699165;28;20216;-79
2023/07/20 21:32:28;;;;;;;2.10;0.80;;;;;;;20.45;41.82;100178.50;20718416;28;20263;-79
2023/07/20 21:42:31;;;;;;;0.93;0.70;;;;;;;19.70;45.37;100192.25;20724467;28;20224;-79
2023/07/20 21:52:34;;;;;;;1.58;1.20;;;;;;;20.08;45.71;100215.84;20700431;28;20228;-79
2023/07/20 22:02:39;;;;;;;4.88;1.33;;;;;;;18.37;51.92;100255.78;20674465;28;20217;-79
2023/07/20 22:12:46;;;;;;;1.38;1.27;;;;;;;18.01;54.61;100246.69;20693532;28;20197;-79
2023/07/20 22:22:50;;;;;;;2.78;1.80;;;;;;;17.31;60.65;100232.81;20690845;28;20526;-80
2023/07/20 22:32:53;;;;;;;3.45;1.88;;;;;;;17.75;61.82;100238.91;20729752;28;20193;-80
2023/07/20 22:42:57;;;;;;;2.70;2.50;;;;;;;17.39;63.74;100216.72;20695721;28;20352;-79
2023/07/20 22:53:00;;;;;;;2.40;1.83;;;;;;;17.60;60.83;100208.56;20729391;28;20229;-80
2023/07/20 23:03:04;;;;;;;3.03;2.75;;;;;;;16.46;68.13;100194.06;20680289;28;20224;-79
2023/07/20 23:13:10;;;;;;;3.92;3.00;;;;;;;17.84;61.81;100179.69;20663186;28;20285;-80
2023/07/20 23:23:16;;;;;;;3.63;3.33;;;;;;;17.89;61.13;100184.25;20733827;28;20222;-79
2023/07/20 23:33:20;;;;;;;3.78;3.47;;;;;;;17.99;61.97;100179.94;20716974;28;20219;-79
2023/07/20 23:43:25;;;;;;;4.22;3.83;;;;;;;18.36;61.54;100168.69;20723557;28;20244;-80
2023/07/20 23:53:30;;;;;;;4.10;3.50;;;;;;;17.62;62.44;100174.84;20725962;28;20229;-81
